Time;durP1;ratioP1;P1;durP2;ratioP2;P2;SDS_P1;SDS_P2;PMS_P1;PMS_P2;Temp;Humidity;BMP_temperature;BMP_pressure;BME280_temperature;BME280_humidity;BME280_pressure;Samples;Min_cycle;Max_cycle;Signal;HPM_P1;HPM_P2
2024/01/15 00:00:16;;;;;;;6.60;4.00;;;;;;;;;;43492;272;3031665;-33
2024/01/15 00:02:41;;;;;;;6.50;4.20;;;;;;;;;;43464;280;3031721;-33
2024/01/15 00:04:26;;;;;;;6.00;3.80;;;;;;;;;;43450;279;3031538;-32
2024/01/15 00:06:11;;;;;;;6.90;4.20;;;;;;;;;;43686;280;3031262;-32
2024/01/15 00:07:56;;;;;;;7.30;3.70;;;;;;;;;;43477;268;3031575;-32
2024/01/15 00:09:42;;;;;;;6.20;3.90;;;;;;;;;;43493;280;3031542;-32
2024/01/15 00:11:28;;;;;;;6.80;4.00;;;;;;;;;;43494;272;3031382;-32
2024/01/15 00:13:13;;;;;;;6.00;3.60;;;;;;;;;;43480;279;3031911;-32
2024/01/15 00:15:01;;;;;;;6.00;3.60;;;;;;;;;;43451;279;3032581;-32
2024/01/15 00:16:49;;;;;;;6.00;3.60;;;;;;;;;;43462;280;3031795;-32
2024/01/15 00:18:35;;;;;;;5.70;3.40;;;;;;;;;;43423;277;3031345;-32
2024/01/15 00:20:21;;;;;;;5.60;3.00;;;;;;;;;;43454;269;3031342;-33
2024/01/15 00:22:11;;;;;;;5.80;3.60;;;;;;;;;;43484;268;3031693;-33
2024/01/15 00:23:57;;;;;;;5.80;3.70;;;;;;;;;;43468;272;3030992;-33
2024/01/15 00:25:45;;;;;;;6.00;3.60;;;;;;;;;;43453;268;3031531;-33
2024/01/15 00:27:30;;;;;;;6.30;3.70;;;;;;;;;;43465;276;3031275;-33
2024/01/15 00:29:15;;;;;;;6.30;3.90;;;;;;;;;;43474;279;3031255;-33
2024/01/15 00:31:03;;;;;;;6.20;3.80;;;;;;;;;;43464;268;3033969;-33
2024/01/15 00:32:59;;;;;;;5.90;3.70;;;;;;;;;;43467;268;3031272;-33
2024/01/15 00:34:46;;;;;;;5.80;3.60;;;;;;;;;;43445;280;3031430;-32
2024/01/15 00:36:37;;;;;;;5.60;3.30;;;;;;;;;;43467;279;3038345;-33
2024/01/15 00:38:22;;;;;;;5.40;3.40;;;;;;;;;;43490;289;3031996;-33
2024/01/15 00:40:12;;;;;;;5.60;3.40;;;;;;;;;;43451;280;3031513;-33
2024/01/15 00:41:56;;;;;;;6.10;3.50;;;;;;;;;;43503;287;3031125;-33
2024/01/15 00:43:41;;;;;;;6.60;3.50;;;;;;;;;;43469;284;3030937;-33
2024/01/15 00:45:27;;;;;;;6.00;3.60;;;;;;;;;;43432;279;3032372;-33
2024/01/15 00:47:15;;;;;;;6.50;3.80;;;;;;;;;;43475;268;3031011;-33
2024/01/15 00:49:00;;;;;;;5.80;3.50;;;;;;;;;;43460;279;3032159;-33
2024/01/15 00:50:45;;;;;;;5.60;3.60;;;;;;;;;;43503;268;3031474;-33
2024/01/15 00:52:33;;;;;;;6.70;3.40;;;;;;;;;;43486;279;3031466;-33
2024/01/15 00:54:20;;;;;;;5.60;3.50;;;;;;;;;;43488;279;3032056;-33
2024/01/15 00:56:08;;;;;;;5.70;3.50;;;;;;;;;;43455;272;3031286;-33
2024/01/15 00:57:52;;;;;;;5.80;3.60;;;;;;;;;;43577;275;3031144;-33
2024/01/15 00:59:40;;;;;;;5.90;3.40;;;;;;;;;;43446;279;3030964;-32
2024/01/15 01:01:26;;;;;;;5.50;3.30;;;;;;;;;;43463;289;3032192;-32
2024/01/15 01:03:12;;;;;;;5.60;3.30;;;;;;;;;;43476;268;3031559;-32
2024/01/15 01:04:59;;;;;;;5.50;3.40;;;;;;;;;;43457;276;3033240;-32
2024/01/15 01:06:46;;;;;;;5.60;3.50;;;;;;;;;;43355;280;3031228;-32
2024/01/15 01:08:30;;;;;;;5.50;3.30;;;;;;;;;;43479;268;3031052;-32
2024/01/15 01:10:19;;;;;;;5.40;3.20;;;;;;;;;;43467;280;3032383;-32
2024/01/15 01:12:04;;;;;;;5.70;3.40;;;;;;;;;;43467;279;3031394;-32
2024/01/15 01:13:51;;;;;;;5.90;3.50;;;;;;;;;;43465;280;3031430;-32
2024/01/15 01:15:36;;;;;;;5.30;3.30;;;;;;;;;;43483;268;3031412;-32
2024/01/15 01:17:21;;;;;;;5.40;3.30;;;;;;;;;;43422;268;3039260;-32
2024/01/15 01:19:07;;;;;;;5.90;3.60;;;;;;;;;;43466;272;3031026;-32
2024/01/15 01:20:53;;;;;;;5.60;3.50;;;;;;;;;;43453;280;3033984;-32
2024/01/15 01:22:39;;;;;;;5.40;3.30;;;;;;;;;;43458;272;3032137;-33
2024/01/15 01:24:23;;;;;;;5.70;3.50;;;;;;;;;;43751;268;3030890;-33
2024/01/15 01:26:08;;;;;;;6.00;3.80;;;;;;;;;;43434;280;3031425;-33
2024/01/15 01:27:53;;;;;;;5.60;3.30;;;;;;;;;;43436;279;3037998;-33
2024/01/15 01:29:40;;;;;;;5.40;3.50;;;;;;;;;;43452;275;3031849;-33
2024/01/15 01:31:27;;;;;;;5.20;3.20;;;;;;;;;;43474;276;3031475;-33
2024/01/15 01:33:13;;;;;;;4.80;3.00;;;;;;;;;;43459;288;3031846;-33
2024/01/15 01:34:58;;;;;;;5.80;3.20;;;;;;;;;;43601;280;3031974;-33
2024/01/15 01:36:43;;;;;;;5.30;3.00;;;;;;;;;;43454;280;3031351;-33
2024/01/15 01:38:29;;;;;;;5.60;3.20;;;;;;;;;;43811;280;3031267;-33
2024/01/15 01:40:14;;;;;;;5.50;3.20;;;;;;;;;;44144;288;3031573;-33
2024/01/15 01:41:59;;;;;;;5.10;3.10;;;;;;;;;;43795;272;3031461;-33
2024/01/15 01:43:45;;;;;;;5.90;3.30;;;;;;;;;;43460;276;3031198;-33
2024/01/15 01:45:31;;;;;;;6.00;3.20;;;;;;;;;;43442;267;3032715;-33
2024/01/15 01:47:26;;;;;;;5.30;3.30;;;;;;;;;;43441;280;3031871;-33
2024/01/15 01:49:13;;;;;;;5.50;3.10;;;;;;;;;;43499;288;3032036;-32
2024/01/15 01:51:01;;;;;;;5.40;3.30;;;;;;;;;;43465;272;3031754;-32
2024/01/15 01:52:47;;;;;;;5.30;3.30;;;;;;;;;;43464;272;3031903;-32
2024/01/15 01:54:38;;;;;;;5.70;3.20;;;;;;;;;;43464;272;3034037;-32
2024/01/15 01:56:24;;;;;;;5.30;3.30;;;;;;;;;;43479;264;3031243;-32
2024/01/15 01:58:10;;;;;;;5.20;3.10;;;;;;;;;;43451;272;3031444;-32
2024/01/15 01:59:55;;;;;;;5.50;3.50;;;;;;;;;;44077;272;3031221;-32
2024/01/15 02:01:40;;;;;;;6.10;3.40;;;;;;;;;;44178;276;3031668;-32
2024/01/15 02:03:26;;;;;;;5.50;3.10;;;;;;;;;;43685;279;3031427;-32
2024/01/15 02:05:12;;;;;;;5.40;3.00;;;;;;;;;;43736;267;3031450;-33
2024/01/15 02:06:59;;;;;;;6.10;3.40;;;;;;;;;;43441;280;3031410;-33
2024/01/15 02:08:47;;;;;;;5.50;3.10;;;;;;;;;;43402;281;3039004;-33
2024/01/15 02:10:32;;;;;;;5.20;3.00;;;;;;;;;;43459;267;3032117;-33
2024/01/15 02:12:17;;;;;;;5.30;3.10;;;;;;;;;;43485;272;3031654;-33
2024/01/15 02:14:04;;;;;;;5.30;3.00;;;;;;;;;;43441;280;3032660;-33
2024/01/15 02:15:50;;;;;;;5.60;3.10;;;;;;;;;;43483;272;3031889;-33
2024/01/15 02:17:35;;;;;;;5.40;3.20;;;;;;;;;;43439;280;3031712;-33
2024/01/15 02:19:22;;;;;;;5.40;3.10;;;;;;;;;;43476;272;3031954;-33
2024/01/15 02:21:08;;;;;;;5.50;3.20;;;;;;;;;;43452;280;3031597;-33
2024/01/15 02:22:53;;;;;;;5.60;3.20;;;;;;;;;;43859;280;3031384;-33
2024/01/15 02:24:41;;;;;;;5.10;2.80;;;;;;;;;;43469;284;3031578;-33
2024/01/15 02:26:29;;;;;;;5.80;3.20;;;;;;;;;;43733;272;3030799;-33
2024/01/15 02:28:17;;;;;;;5.50;3.20;;;;;;;;;;43426;280;3031295;-33
2024/01/15 02:30:04;;;;;;;5.40;3.30;;;;;;;;;;43466;272;3031238;-32
2024/01/15 02:31:49;;;;;;;4.90;3.10;;;;;;;;;;43753;276;3032378;-32
2024/01/15 02:33:34;;;;;;;5.40;2.90;;;;;;;;;;43466;280;3030923;-32
2024/01/15 02:35:20;;;;;;;5.00;2.90;;;;;;;;;;43459;272;3031307;-32
2024/01/15 02:37:07;;;;;;;5.00;3.00;;;;;;;;;;43473;280;3031770;-32
2024/01/15 02:38:54;;;;;;;5.30;3.10;;;;;;;;;;43452;280;3031988;-32
2024/01/15 02:40:41;;;;;;;5.10;3.00;;;;;;;;;;43479;284;3031437;-32
2024/01/15 02:42:25;;;;;;;5.10;3.10;;;;;;;;;;43457;280;3031620;-32
2024/01/15 02:44:11;;;;;;;5.40;3.10;;;;;;;;;;43746;280;3031528;-32
2024/01/15 02:45:56;;;;;;;4.70;3.00;;;;;;;;;;43480;272;3031213;-32
2024/01/15 02:47:41;;;;;;;5.00;2.90;;;;;;;;;;43491;272;3031521;-32
2024/01/15 02:49:32;;;;;;;5.50;3.10;;;;;;;;;;43453;280;3037297;-32
2024/01/15 02:51:18;;;;;;;5.30;3.10;;;;;;;;;;43467;276;3032297;-32
2024/01/15 02:53:04;;;;;;;4.70;2.80;;;;;;;;;;43467;272;3031356;-32
2024/01/15 02:54:48;;;;;;;5.40;3.10;;;;;;;;;;43571;280;3031726;-33
2024/01/15 02:56:37;;;;;;;4.80;3.10;;;;;;;;;;43463;276;3031444;-33
2024/01/15 02:58:24;;;;;;;5.10;3.00;;;;;;;;;;43458;288;3031537;-33
2024/01/15 03:00:14;;;;;;;5.50;3.20;;;;;;;;;;43464;267;3031733;-33
2024/01/15 03:01:59;;;;;;;4.90;3.00;;;;;;;;;;44203;276;3032390;-33
2024/01/15 03:03:46;;;;;;;5.10;3.00;;;;;;;;;;43955;272;3030770;-33
2024/01/15 03:05:31;;;;;;;5.60;3.10;;;;;;;;;;43483;280;3031466;-33
2024/01/15 03:07:17;;;;;;;5.70;2.90;;;;;;;;;;43461;280;3031527;-33
2024/01/15 03:09:03;;;;;;;5.00;3.00;;;;;;;;;;43457;280;3031420;-32
2024/01/15 03:10:49;;;;;;;5.40;3.10;;;;;;;;;;43467;288;3031390;-32
2024/01/15 03:12:35;;;;;;;5.60;3.30;;;;;;;;;;43461;279;3031753;-32
2024/01/15 03:14:20;;;;;;;5.30;3.00;;;;;;;;;;43457;280;3034202;-32
2024/01/15 03:16:06;;;;;;;5.30;3.10;;;;;;;;;;43482;276;3031133;-32
2024/01/15 03:17:51;;;;;;;4.90;3.10;;;;;;;;;;44199;276;3031793;-32
2024/01/15 03:19:38;;;;;;;5.30;3.20;;;;;;;;;;44141;280;3030938;-32
2024/01/15 03:21:23;;;;;;;5.70;3.00;;;;;;;;;;44114;280;3031522;-32
2024/01/15 03:23:08;;;;;;;5.20;2.90;;;;;;;;;;44230;267;3031487;-32
2024/01/15 03:24:55;;;;;;;5.20;3.10;;;;;;;;;;43963;272;3031241;-32
2024/01/15 03:26:42;;;;;;;4.80;2.90;;;;;;;;;;43469;272;3031195;-32
2024/01/15 03:28:27;;;;;;;4.80;2.80;;;;;;;;;;43457;280;3031597;-32
2024/01/15 03:30:14;;;;;;;5.10;3.00;;;;;;;;;;43473;280;3031600;-32
2024/01/15 03:31:59;;;;;;;5.20;3.20;;;;;;;;;;43536;272;3031667;-33
2024/01/15 03:33:47;;;;;;;4.90;3.00;;;;;;;;;;43457;267;3031537;-33
2024/01/15 03:35:32;;;;;;;4.80;2.90;;;;;;;;;;43465;280;3031324;-33
2024/01/15 03:37:17;;;;;;;5.30;3.10;;;;;;;;;;43489;280;3032085;-33
2024/01/15 03:39:02;;;;;;;5.00;3.00;;;;;;;;;;43460;280;3033756;-32
2024/01/15 03:40:49;;;;;;;5.30;3.00;;;;;;;;;;43471;280;3037899;-32
2024/01/15 03:42:34;;;;;;;5.20;2.90;;;;;;;;;;43470;268;3030864;-32
2024/01/15 03:44:20;;;;;;;5.20;2.90;;;;;;;;;;43487;279;3031346;-32
2024/01/15 03:46:06;;;;;;;5.20;3.10;;;;;;;;;;43465;288;3031881;-32
2024/01/15 03:47:56;;;;;;;4.90;2.90;;;;;;;;;;43480;280;3032122;-32
2024/01/15 03:49:41;;;;;;;5.30;2.70;;;;;;;;;;43453;263;3031332;-32
2024/01/15 03:51:27;;;;;;;5.30;2.80;;;;;;;;;;43469;267;3031545;-32
2024/01/15 03:53:14;;;;;;;5.30;3.00;;;;;;;;;;43495;272;3031504;-32
2024/01/15 03:54:58;;;;;;;5.30;2.90;;;;;;;;;;43458;272;3031638;-32
2024/01/15 03:56:45;;;;;;;6.70;3.00;;;;;;;;;;43464;280;3031787;-32
2024/01/15 03:58:30;;;;;;;5.30;3.00;;;;;;;;;;43467;280;3030838;-32
2024/01/15 04:00:18;;;;;;;5.20;3.00;;;;;;;;;;43450;264;3031225;-33
2024/01/15 04:02:02;;;;;;;4.70;2.90;;;;;;;;;;43695;280;3031221;-33
2024/01/15 04:03:48;;;;;;;5.90;3.10;;;;;;;;;;43473;272;3030905;-33
2024/01/15 04:05:33;;;;;;;5.70;3.10;;;;;;;;;;43471;280;3031522;-33
2024/01/15 04:07:18;;;;;;;5.40;3.40;;;;;;;;;;43480;272;3031588;-33
2024/01/15 04:09:02;;;;;;;5.30;3.00;;;;;;;;;;43456;280;3032256;-33
2024/01/15 04:10:49;;;;;;;5.00;2.80;;;;;;;;;;43927;280;3031878;-33
2024/01/15 04:12:35;;;;;;;5.00;2.80;;;;;;;;;;43481;267;3031629;-33
2024/01/15 04:14:21;;;;;;;5.20;2.90;;;;;;;;;;43466;280;3033675;-33
2024/01/15 04:16:09;;;;;;;4.90;2.70;;;;;;;;;;43478;272;3031680;-33
2024/01/15 04:17:54;;;;;;;5.30;3.10;;;;;;;;;;43461;276;3031450;-33
2024/01/15 04:19:39;;;;;;;5.20;3.10;;;;;;;;;;43456;276;3031379;-33
2024/01/15 04:21:23;;;;;;;5.20;2.80;;;;;;;;;;43462;272;3031683;-33
2024/01/15 04:23:09;;;;;;;5.30;2.80;;;;;;;;;;43472;284;3032890;-33
2024/01/15 04:24:54;;;;;;;5.10;3.10;;;;;;;;;;43652;280;3031505;-33
2024/01/15 04:26:42;;;;;;;5.50;2.90;;;;;;;;;;43476;272;3031679;-33
2024/01/15 04:28:27;;;;;;;5.90;2.80;;;;;;;;;;43477;272;3031556;-33
2024/01/15 04:30:14;;;;;;;5.70;3.00;;;;;;;;;;43453;272;3031620;-33
2024/01/15 04:31:59;;;;;;;5.80;3.10;;;;;;;;;;43573;280;3038486;-33
2024/01/15 04:33:44;;;;;;;5.20;2.80;;;;;;;;;;43469;280;3030892;-33
2024/01/15 04:35:31;;;;;;;5.10;3.00;;;;;;;;;;43497;288;3033531;-33
2024/01/15 04:37:17;;;;;;;5.00;2.80;;;;;;;;;;43484;280;3030851;-33
2024/01/15 04:39:01;;;;;;;5.40;2.90;;;;;;;;;;44017;288;3031404;-33
2024/01/15 04:40:48;;;;;;;5.30;2.90;;;;;;;;;;43470;277;3031351;-33
2024/01/15 04:42:34;;;;;;;5.70;2.80;;;;;;;;;;43483;267;3031440;-33
2024/01/15 04:44:19;;;;;;;5.90;3.00;;;;;;;;;;43481;267;3032011;-33
2024/01/15 04:46:05;;;;;;;5.40;3.10;;;;;;;;;;43471;275;3031606;-33
2024/01/15 04:47:51;;;;;;;4.80;2.80;;;;;;;;;;43476;280;3031943;-33
2024/01/15 04:49:36;;;;;;;5.00;2.80;;;;;;;;;;43469;267;3034386;-33
2024/01/15 04:51:21;;;;;;;4.70;2.80;;;;;;;;;;43453;280;3031484;-32
2024/01/15 04:53:06;;;;;;;4.80;2.70;;;;;;;;;;43451;268;3031688;-32
2024/01/15 04:54:55;;;;;;;4.90;2.70;;;;;;;;;;43465;280;3031457;-32
2024/01/15 04:56:42;;;;;;;5.10;3.10;;;;;;;;;;43480;279;3031184;-32
2024/01/15 04:58:27;;;;;;;5.20;2.70;;;;;;;;;;43469;280;3031389;-32
2024/01/15 05:00:14;;;;;;;5.40;2.90;;;;;;;;;;43479;288;3030772;-32
2024/01/15 05:02:00;;;;;;;4.50;2.50;;;;;;;;;;43584;288;3032554;-32
2024/01/15 05:03:46;;;;;;;4.90;2.70;;;;;;;;;;43469;280;3031688;-32
2024/01/15 05:05:31;;;;;;;5.00;2.70;;;;;;;;;;43481;279;3030869;-32
2024/01/15 05:07:19;;;;;;;5.10;2.70;;;;;;;;;;43477;267;3031771;-32
2024/01/15 05:09:04;;;;;;;4.50;2.70;;;;;;;;;;43467;280;3031789;-32
2024/01/15 05:10:51;;;;;;;4.60;2.60;;;;;;;;;;43473;280;3031229;-32
2024/01/15 05:12:36;;;;;;;5.20;2.70;;;;;;;;;;43475;267;3031053;-32
2024/01/15 05:14:22;;;;;;;4.90;2.60;;;;;;;;;;43472;272;3031914;-32
2024/01/15 05:16:09;;;;;;;4.70;2.60;;;;;;;;;;43471;280;3030972;-32
2024/01/15 05:17:54;;;;;;;4.80;2.60;;;;;;;;;;44048;275;3031703;-32
2024/01/15 05:19:39;;;;;;;4.90;2.60;;;;;;;;;;43462;272;3030878;-32
2024/01/15 05:21:24;;;;;;;4.80;2.80;;;;;;;;;;43459;272;3032192;-32
2024/01/15 05:23:10;;;;;;;4.50;2.60;;;;;;;;;;43477;267;3037462;-32
2024/01/15 05:24:56;;;;;;;4.90;2.70;;;;;;;;;;43485;267;3031256;-32
2024/01/15 05:26:42;;;;;;;5.10;2.70;;;;;;;;;;43484;272;3031433;-32
2024/01/15 05:28:32;;;;;;;4.50;2.70;;;;;;;;;;43478;272;3031969;-32
2024/01/15 05:30:18;;;;;;;4.40;2.50;;;;;;;;;;43459;280;3031155;-32
2024/01/15 05:32:03;;;;;;;5.00;2.70;;;;;;;;;;43539;267;3031205;-32
2024/01/15 05:33:50;;;;;;;5.20;2.60;;;;;;;;;;43476;280;3031678;-32
2024/01/15 05:35:37;;;;;;;4.90;2.70;;;;;;;;;;43499;288;3031912;-32
2024/01/15 05:37:22;;;;;;;4.60;2.50;;;;;;;;;;43461;272;3032107;-33
2024/01/15 05:39:07;;;;;;;4.70;2.60;;;;;;;;;;43467;288;3031281;-33
2024/01/15 05:40:56;;;;;;;5.00;2.50;;;;;;;;;;43487;280;3031536;-33
2024/01/15 05:42:41;;;;;;;4.70;2.70;;;;;;;;;;43418;280;3032240;-33
2024/01/15 05:44:26;;;;;;;4.60;2.70;;;;;;;;;;43468;280;3031537;-33
2024/01/15 05:46:10;;;;;;;4.20;2.40;;;;;;;;;;43489;267;3031793;-33
2024/01/15 05:47:55;;;;;;;5.10;2.70;;;;;;;;;;43466;272;3031592;-33
2024/01/15 05:49:41;;;;;;;4.50;2.60;;;;;;;;;;43471;272;3031537;-33
2024/01/15 05:51:27;;;;;;;4.70;2.60;;;;;;;;;;43475;272;3031300;-33
2024/01/15 05:53:15;;;;;;;4.60;2.60;;;;;;;;;;43438;272;3033390;-33
2024/01/15 05:55:00;;;;;;;4.20;2.30;;;;;;;;;;43462;272;3032002;-33
2024/01/15 05:56:47;;;;;;;4.70;2.50;;;;;;;;;;43474;288;3031998;-33
2024/01/15 05:58:33;;;;;;;4.50;2.40;;;;;;;;;;43480;267;3031040;-33
2024/01/15 06:00:21;;;;;;;4.70;2.50;;;;;;;;;;43463;268;3031184;-33
2024/01/15 06:02:06;;;;;;;4.30;2.30;;;;;;;;;;43567;288;3031556;-32
2024/01/15 06:03:53;;;;;;;5.00;2.70;;;;;;;;;;43666;280;3037456;-32
2024/01/15 06:05:39;;;;;;;4.50;2.50;;;;;;;;;;43470;280;3031174;-32
2024/01/15 06:07:27;;;;;;;4.20;2.40;;;;;;;;;;43762;288;3031327;-32
2024/01/15 06:09:12;;;;;;;4.50;2.60;;;;;;;;;;43450;272;3031878;-32
2024/01/15 06:10:58;;;;;;;4.90;2.80;;;;;;;;;;43467;272;3031331;-32
2024/01/15 06:12:46;;;;;;;4.60;2.40;;;;;;;;;;43439;279;3031357;-32
2024/01/15 06:14:32;;;;;;;4.60;2.50;;;;;;;;;;43498;280;3031337;-32
2024/01/15 06:16:21;;;;;;;4.40;2.40;;;;;;;;;;43468;280;3031487;-32
2024/01/15 06:18:12;;;;;;;4.90;2.50;;;;;;;;;;43465;272;3032495;-32
2024/01/15 06:19:57;;;;;;;4.90;2.40;;;;;;;;;;43452;288;3032585;-33
2024/01/15 06:21:42;;;;;;;4.60;2.50;;;;;;;;;;43483;267;3031331;-33
2024/01/15 06:23:27;;;;;;;4.50;2.30;;;;;;;;;;43449;267;3031558;-33
2024/01/15 06:25:17;;;;;;;4.60;2.50;;;;;;;;;;43447;280;3032182;-33
2024/01/15 06:27:02;;;;;;;4.70;2.40;;;;;;;;;;43415;276;3031278;-33
2024/01/15 06:28:49;;;;;;;4.50;2.50;;;;;;;;;;43454;280;3031765;-33
2024/01/15 06:30:38;;;;;;;4.40;2.40;;;;;;;;;;43487;280;3031244;-33
2024/01/15 06:32:25;;;;;;;4.80;2.50;;;;;;;;;;43484;272;3031284;-32
2024/01/15 06:34:09;;;;;;;4.40;2.50;;;;;;;;;;43434;288;3031726;-32
2024/01/15 06:35:58;;;;;;;4.60;2.60;;;;;;;;;;43482;284;3031490;-32
2024/01/15 06:37:45;;;;;;;4.70;2.60;;;;;;;;;;43497;272;3031919;-32
2024/01/15 06:39:32;;;;;;;4.50;2.40;;;;;;;;;;43477;288;3031159;-32
2024/01/15 06:41:16;;;;;;;4.60;2.40;;;;;;;;;;43452;280;3031361;-32
2024/01/15 06:43:02;;;;;;;4.50;2.60;;;;;;;;;;43468;275;3031973;-32
2024/01/15 06:44:47;;;;;;;4.40;2.30;;;;;;;;;;43465;272;3039145;-32
2024/01/15 06:46:35;;;;;;;4.00;2.20;;;;;;;;;;43472;267;3031460;-32
2024/01/15 06:48:20;;;;;;;4.40;2.60;;;;;;;;;;43475;272;3031681;-32
2024/01/15 06:50:06;;;;;;;5.20;2.80;;;;;;;;;;44127;276;3031651;-32
2024/01/15 06:51:52;;;;;;;4.50;2.40;;;;;;;;;;43739;276;3031469;-32
2024/01/15 06:53:39;;;;;;;4.30;2.50;;;;;;;;;;43445;280;3031767;-32
2024/01/15 06:55:27;;;;;;;4.30;2.30;;;;;;;;;;43449;280;3031706;-32
2024/01/15 06:57:14;;;;;;;4.60;2.70;;;;;;;;;;44163;271;3032049;-32
2024/01/15 06:58:59;;;;;;;4.50;2.50;;;;;;;;;;43654;272;3031342;-32
2024/01/15 07:00:45;;;;;;;4.70;2.60;;;;;;;;;;43468;276;3031486;-32
2024/01/15 07:02:34;;;;;;;4.60;2.40;;;;;;;;;;43498;272;3031855;-33
2024/01/15 07:04:19;;;;;;;4.60;2.30;;;;;;;;;;43463;280;3031514;-33
2024/01/15 07:06:06;;;;;;;4.40;2.50;;;;;;;;;;43474;272;3031258;-33
2024/01/15 07:07:51;;;;;;;4.50;2.50;;;;;;;;;;43604;276;3031938;-33
2024/01/15 07:09:36;;;;;;;4.30;2.40;;;;;;;;;;43492;280;3031807;-33
2024/01/15 07:11:21;;;;;;;4.40;2.50;;;;;;;;;;43639;280;3031729;-33
2024/01/15 07:13:10;;;;;;;4.50;2.50;;;;;;;;;;43510;267;3031342;-33
2024/01/15 07:14:54;;;;;;;4.90;2.50;;;;;;;;;;43525;267;3032051;-33
2024/01/15 07:16:40;;;;;;;4.50;2.40;;;;;;;;;;43481;280;3031566;-33
2024/01/15 07:18:31;;;;;;;4.30;2.40;;;;;;;;;;43474;276;3031243;-33
2024/01/15 07:20:19;;;;;;;4.30;2.40;;;;;;;;;;43455;272;3030839;-33
2024/01/15 07:22:06;;;;;;;4.50;2.40;;;;;;;;;;43458;280;3031763;-33
2024/01/15 07:23:52;;;;;;;4.70;2.60;;;;;;;;;;43481;280;3031523;-33
2024/01/15 07:25:39;;;;;;;4.70;2.60;;;;;;;;;;43439;280;3037714;-33
2024/01/15 07:27:24;;;;;;;4.50;2.60;;;;;;;;;;43492;263;3031065;-33
2024/01/15 07:29:08;;;;;;;4.50;2.40;;;;;;;;;;43479;272;3031364;-32
2024/01/15 07:30:53;;;;;;;4.60;2.40;;;;;;;;;;43482;272;3031882;-32
2024/01/15 07:32:40;;;;;;;4.60;2.50;;;;;;;;;;43485;280;3031550;-32
2024/01/15 07:34:25;;;;;;;4.30;2.50;;;;;;;;;;43472;267;3031831;-32
2024/01/15 07:36:14;;;;;;;4.40;2.50;;;;;;;;;;43467;280;3037771;-33
2024/01/15 07:37:59;;;;;;;4.40;2.50;;;;;;;;;;43454;272;3031256;-33
2024/01/15 07:39:46;;;;;;;4.70;2.40;;;;;;;;;;43475;280;3031419;-33
2024/01/15 07:41:31;;;;;;;4.10;2.30;;;;;;;;;;43471;272;3031206;-33
2024/01/15 07:43:16;;;;;;;4.50;2.40;;;;;;;;;;43462;280;3031392;-33
2024/01/15 07:45:02;;;;;;;5.00;2.60;;;;;;;;;;43461;272;3031392;-33
2024/01/15 07:46:49;;;;;;;4.40;2.40;;;;;;;;;;43479;280;3031534;-33
2024/01/15 07:48:36;;;;;;;4.70;2.50;;;;;;;;;;43478;280;3031485;-33
2024/01/15 07:50:26;;;;;;;5.00;2.90;;;;;;;;;;43478;272;3032107;-33
2024/01/15 07:52:12;;;;;;;4.70;2.80;;;;;;;;;;43452;280;3031888;-33
2024/01/15 07:54:01;;;;;;;5.20;2.50;;;;;;;;;;43468;280;3031879;-33
2024/01/15 07:55:47;;;;;;;4.70;2.70;;;;;;;;;;43418;268;3031720;-33
2024/01/15 07:57:35;;;;;;;5.00;2.80;;;;;;;;;;43484;280;3031209;-33
2024/01/15 07:59:22;;;;;;;4.80;2.40;;;;;;;;;;43453;288;3032110;-33
2024/01/15 08:01:09;;;;;;;5.00;2.70;;;;;;;;;;43459;280;3032745;-33
2024/01/15 08:02:54;;;;;;;5.00;2.80;;;;;;;;;;43467;267;3032477;-33
2024/01/15 08:04:40;;;;;;;4.70;2.60;;;;;;;;;;43464;272;3031042;-33
2024/01/15 08:06:25;;;;;;;5.20;2.80;;;;;;;;;;43753;276;3032014;-33
2024/01/15 08:08:11;;;;;;;4.60;2.50;;;;;;;;;;43454;280;3031614;-33
2024/01/15 08:09:58;;;;;;;5.50;2.90;;;;;;;;;;43483;280;3032110;-33
2024/01/15 08:11:45;;;;;;;5.30;2.70;;;;;;;;;;43465;264;3031922;-33
2024/01/15 08:13:31;;;;;;;5.10;2.60;;;;;;;;;;43478;280;3031861;-33
2024/01/15 08:15:18;;;;;;;5.10;2.80;;;;;;;;;;43462;272;3031282;-33
2024/01/15 08:17:03;;;;;;;5.60;2.80;;;;;;;;;;43465;288;3030999;-33
2024/01/15 08:18:47;;;;;;;4.90;2.60;;;;;;;;;;43462;267;3031328;-33
2024/01/15 08:20:33;;;;;;;4.80;2.80;;;;;;;;;;43814;280;3031211;-33
2024/01/15 08:22:20;;;;;;;5.60;2.90;;;;;;;;;;43474;280;3032100;-33
2024/01/15 08:24:06;;;;;;;4.90;2.90;;;;;;;;;;43519;272;3031948;-33
2024/01/15 08:25:52;;;;;;;8.10;3.40;;;;;;;;;;43428;272;3031524;-33
2024/01/15 08:27:38;;;;;;;7.30;3.60;;;;;;;;;;43475;268;3031078;-33
2024/01/15 08:29:26;;;;;;;7.90;3.40;;;;;;;;;;43463;268;3032027;-33
2024/01/15 08:31:10;;;;;;;6.60;3.40;;;;;;;;;;44033;276;3031725;-32
2024/01/15 08:32:59;;;;;;;6.30;3.20;;;;;;;;;;43477;280;3031999;-32
2024/01/15 08:34:53;;;;;;;7.00;3.20;;;;;;;;;;43899;272;3031992;-32
2024/01/15 08:36:40;;;;;;;6.30;3.20;;;;;;;;;;43410;288;3031992;-32
2024/01/15 08:38:26;;;;;;;7.20;3.60;;;;;;;;;;43487;280;3031966;-32
2024/01/15 08:40:14;;;;;;;7.20;3.30;;;;;;;;;;43447;272;3031655;-32
2024/01/15 08:41:58;;;;;;;6.10;3.30;;;;;;;;;;43530;268;3031503;-35
2024/01/15 08:43:43;;;;;;;6.80;3.50;;;;;;;;;;43451;280;3031531;-33
2024/01/15 08:45:27;;;;;;;6.40;3.80;;;;;;;;;;43462;280;3031930;-32
2024/01/15 08:47:17;;;;;;;6.50;3.30;;;;;;;;;;43442;280;3031878;-33
2024/01/15 08:49:03;;;;;;;6.30;3.40;;;;;;;;;;44145;279;3030848;-32
2024/01/15 08:50:47;;;;;;;5.60;3.20;;;;;;;;;;44225;267;3031967;-33
2024/01/15 08:52:34;;;;;;;8.10;3.40;;;;;;;;;;44118;280;3031737;-33
2024/01/15 08:54:19;;;;;;;6.40;3.10;;;;;;;;;;44190;267;3031282;-33
2024/01/15 08:56:04;;;;;;;6.40;3.20;;;;;;;;;;44137;280;3031465;-32
2024/01/15 08:57:48;;;;;;;6.80;3.40;;;;;;;;;;44167;267;3037534;-32
2024/01/15 08:59:33;;;;;;;6.90;3.60;;;;;;;;;;44208;276;3031093;-33
2024/01/15 09:01:17;;;;;;;5.60;2.90;;;;;;;;;;44187;280;3031614;-33
2024/01/15 09:03:02;;;;;;;7.00;3.40;;;;;;;;;;44118;276;3031365;-32
2024/01/15 09:04:46;;;;;;;6.70;3.10;;;;;;;;;;44149;276;3031349;-33
2024/01/15 09:06:31;;;;;;;6.80;3.00;;;;;;;;;;44199;279;3031790;-32
2024/01/15 09:08:15;;;;;;;7.00;3.20;;;;;;;;;;44040;269;3134810;-33
2024/01/15 09:10:00;;;;;;;6.50;3.10;;;;;;;;;;44105;282;3031798;-33
2024/01/15 09:11:45;;;;;;;8.20;3.40;;;;;;;;;;44101;282;3030964;-32
2024/01/15 09:13:30;;;;;;;6.60;3.00;;;;;;;;;;44152;271;3031283;-33
2024/01/15 09:15:15;;;;;;;6.40;3.10;;;;;;;;;;44151;276;3030695;-33
2024/01/15 09:16:59;;;;;;;7.20;3.10;;;;;;;;;;44199;275;3032162;-32
2024/01/15 09:18:44;;;;;;;5.90;2.60;;;;;;;;;;43472;272;3031925;-32
2024/01/15 09:20:29;;;;;;;6.20;3.00;;;;;;;;;;43460;280;3031229;-32
2024/01/15 09:22:18;;;;;;;7.40;3.00;;;;;;;;;;43445;280;3031510;-32
2024/01/15 09:24:09;;;;;;;5.80;2.70;;;;;;;;;;43458;273;3031735;-32
2024/01/15 09:25:54;;;;;;;6.20;2.80;;;;;;;;;;44223;275;3031374;-32
2024/01/15 09:27:38;;;;;;;5.40;2.80;;;;;;;;;;44148;280;3031483;-32
2024/01/15 09:29:23;;;;;;;6.20;3.00;;;;;;;;;;44103;272;3031255;-32
2024/01/15 09:31:08;;;;;;;5.10;2.60;;;;;;;;;;44133;275;3031566;-33
2024/01/15 09:32:52;;;;;;;5.90;2.80;;;;;;;;;;44139;277;3032575;-32
2024/01/15 09:34:37;;;;;;;6.50;3.30;;;;;;;;;;44177;276;3031251;-33
2024/01/15 09:36:22;;;;;;;5.90;2.80;;;;;;;;;;44143;275;3031281;-33
2024/01/15 09:38:08;;;;;;;10.50;2.90;;;;;;;;;;43836;281;3031215;-33
2024/01/15 09:39:53;;;;;;;5.50;2.90;;;;;;;;;;44173;272;3032161;-33
2024/01/15 09:41:38;;;;;;;5.30;2.60;;;;;;;;;;43914;272;3031782;-33
2024/01/15 09:43:24;;;;;;;6.80;3.20;;;;;;;;;;43458;280;3031686;-32
2024/01/15 09:45:11;;;;;;;6.30;2.90;;;;;;;;;;43448;267;3031055;-32
2024/01/15 09:46:57;;;;;;;4.80;2.50;;;;;;;;;;43650;279;3031206;-32
2024/01/15 09:48:42;;;;;;;5.70;3.20;;;;;;;;;;43434;272;3031848;-33
2024/01/15 09:50:28;;;;;;;6.00;2.90;;;;;;;;;;43463;280;3031858;-32
2024/01/15 09:52:15;;;;;;;6.20;3.00;;;;;;;;;;43426;267;3032061;-32
2024/01/15 09:54:02;;;;;;;5.80;2.90;;;;;;;;;;43471;273;3031519;-32
2024/01/15 09:55:47;;;;;;;5.60;2.90;;;;;;;;;;43474;267;3031357;-32
2024/01/15 09:57:34;;;;;;;5.60;3.10;;;;;;;;;;43438;272;3031947;-32
2024/01/15 09:59:20;;;;;;;5.30;2.90;;;;;;;;;;44199;272;3038971;-32
2024/01/15 10:01:06;;;;;;;5.80;3.00;;;;;;;;;;43732;280;3031406;-32
2024/01/15 10:02:53;;;;;;;6.20;2.90;;;;;;;;;;43475;280;3031500;-32
2024/01/15 10:04:38;;;;;;;5.10;2.70;;;;;;;;;;44170;277;3032044;-32
2024/01/15 10:06:25;;;;;;;5.00;2.70;;;;;;;;;;44031;280;3031829;-32
2024/01/15 10:08:12;;;;;;;4.90;2.70;;;;;;;;;;43444;272;3031177;-32
2024/01/15 10:09:58;;;;;;;5.80;2.70;;;;;;;;;;43477;288;3031634;-32
2024/01/15 10:11:44;;;;;;;6.40;3.20;;;;;;;;;;43455;280;3031488;-32
2024/01/15 10:13:30;;;;;;;5.50;2.80;;;;;;;;;;43450;272;3031690;-32
2024/01/15 10:15:17;;;;;;;5.30;2.80;;;;;;;;;;43402;269;3031446;-32
2024/01/15 10:17:04;;;;;;;6.20;2.80;;;;;;;;;;43440;272;3031886;-32
2024/01/15 10:18:49;;;;;;;5.40;2.60;;;;;;;;;;43422;288;3033185;-33
2024/01/15 10:20:36;;;;;;;5.10;2.90;;;;;;;;;;43461;267;3031012;-32
2024/01/15 10:22:22;;;;;;;6.20;2.90;;;;;;;;;;43963;276;3031921;-33
2024/01/15 10:24:08;;;;;;;5.60;3.00;;;;;;;;;;43417;288;3031323;-33
2024/01/15 10:25:53;;;;;;;4.90;2.30;;;;;;;;;;44208;276;3031322;-34
2024/01/15 10:27:38;;;;;;;5.00;2.50;;;;;;;;;;43951;272;3032204;-33